createdAt,value
2017-08-26T00:00:29.843Z,1009.71
2017-08-26T00:01:29.860Z,1009.71
2017-08-26T00:02:25.013Z,1009.65
2017-08-26T00:03:19.962Z,1009.68
2017-08-26T00:04:20.013Z,1009.70
2017-08-26T00:05:14.037Z,1009.66
2017-08-26T00:06:14.137Z,1009.62
2017-08-26T00:07:14.360Z,1009.63
2017-08-26T00:08:09.167Z,1009.62
2017-08-26T00:08:58.179Z,1009.63
2017-08-26T00:09:58.180Z,1009.64
2017-08-26T00:10:52.307Z,1009.66
2017-08-26T00:11:47.320Z,1009.67
2017-08-26T00:12:35.431Z,1009.64
2017-08-26T00:13:23.423Z,1009.61
2017-08-26T00:14:12.384Z,1009.61
2017-08-26T00:15:07.402Z,1009.61
2017-08-26T00:16:01.502Z,1009.58
2017-08-26T00:17:01.513Z,1009.58
2017-08-26T00:17:55.506Z,1009.55
2017-08-26T00:18:44.666Z,1009.54
2017-08-26T00:19:32.611Z,1009.53
2017-08-26T00:20:21.794Z,1009.54
2017-08-26T00:21:15.753Z,1009.49
2017-08-26T00:22:10.760Z,1009.49
2017-08-26T00:22:59.804Z,1009.51
2017-08-26T00:23:53.906Z,1009.54
2017-08-26T00:24:47.986Z,1009.54
2017-08-26T00:25:47.928Z,1009.52
2017-08-26T00:26:42.978Z,1009.53
2017-08-26T00:27:43.007Z,1009.52
2017-08-26T00:28:31.131Z,1009.56
2017-08-26T00:29:20.031Z,1009.54
2017-08-26T00:30:08.157Z,1009.54
2017-08-26T00:30:56.220Z,1009.59
2017-08-26T00:31:45.290Z,1009.57
2017-08-26T00:32:33.429Z,1009.58
2017-08-26T00:33:21.340Z,1009.62
2017-08-26T00:34:09.410Z,1009.61
2017-08-26T00:34:57.396Z,1009.60
2017-08-26T00:35:45.495Z,1009.60
2017-08-26T00:36:33.636Z,1009.60
2017-08-26T00:37:21.484Z,1009.60
2017-08-26T00:38:10.659Z,1009.62
2017-08-26T00:38:58.676Z,1009.66
2017-08-26T00:39:46.737Z,1009.67
2017-08-26T00:40:35.764Z,1009.69
2017-08-26T00:41:23.802Z,1009.74
2017-08-26T00:42:11.917Z,1009.76
2017-08-26T00:43:00.862Z,1009.75
2017-08-26T00:43:48.958Z,1009.77
2017-08-26T00:44:37.073Z,1009.74
2017-08-26T00:45:25.025Z,1009.73
2017-08-26T00:46:14.112Z,1009.73
2017-08-26T00:47:02.182Z,1009.75
2017-08-26T00:47:51.157Z,1009.73
2017-08-26T00:48:39.239Z,1009.70
2017-08-26T00:49:27.275Z,1009.70
2017-08-26T00:50:15.358Z,1009.68
2017-08-26T00:51:03.428Z,1009.71
2017-08-26T00:51:57.419Z,1009.70
2017-08-26T00:52:58.489Z,1009.66
2017-08-26T00:53:58.449Z,1009.64
2017-08-26T00:54:46.504Z,1009.68
2017-08-26T00:55:34.617Z,1009.68
2017-08-26T00:56:23.767Z,1009.65
2017-08-26T00:57:11.730Z,1009.68
2017-08-26T00:58:05.666Z,1009.62
2017-08-26T00:58:54.780Z,1009.58
2017-08-26T00:59:48.780Z,1009.58
2017-08-26T01:00:36.811Z,1009.56
2017-08-26T01:01:26.074Z,1009.60
2017-08-26T01:02:25.986Z,1009.60
2017-08-26T01:03:19.910Z,1009.60
2017-08-26T01:04:08.979Z,1009.60
2017-08-26T01:04:58.047Z,1009.65
2017-08-26T01:05:46.135Z,1009.63
2017-08-26T01:06:34.186Z,1009.59
2017-08-26T01:07:22.230Z,1009.58
2017-08-26T01:08:10.224Z,1009.60
2017-08-26T01:08:58.313Z,1009.57
2017-08-26T01:09:53.278Z,1009.55
2017-08-26T01:10:41.344Z,1009.53
2017-08-26T01:11:35.417Z,1009.51
2017-08-26T01:12:24.383Z,1009.48
2017-08-26T01:13:12.440Z,1009.50
2017-08-26T01:14:06.518Z,1009.49
2017-08-26T01:14:54.544Z,1009.47
2017-08-26T01:15:43.642Z,1009.43
2017-08-26T01:16:31.623Z,1009.45
2017-08-26T01:17:25.773Z,1009.45
2017-08-26T01:18:25.773Z,1009.41
2017-08-26T01:19:14.821Z,1009.46
2017-08-26T01:20:02.838Z,1009.46
2017-08-26T01:21:02.920Z,1009.46
2017-08-26T01:21:57.982Z,1009.51
2017-08-26T01:22:57.981Z,1009.46
2017-08-26T01:23:53.061Z,1009.49
2017-08-26T01:24:48.093Z,1009.48
2017-08-26T01:25:48.115Z,1009.53
2017-08-26T01:26:43.131Z,1009.47
2017-08-26T01:27:38.190Z,1009.50
2017-08-26T01:28:39.154Z,1009.45
2017-08-26T01:29:39.164Z,1009.43
2017-08-26T01:30:39.344Z,1009.44
2017-08-26T01:31:34.326Z,1009.40
2017-08-26T01:32:28.259Z,1009.43
2017-08-26T01:33:28.398Z,1009.42
2017-08-26T01:34:23.468Z,1009.40
2017-08-26T01:35:23.466Z,1009.38
2017-08-26T01:36:17.658Z,1009.42
2017-08-26T01:37:06.624Z,1009.44
2017-08-26T01:38:00.548Z,1009.42
2017-08-26T01:38:54.615Z,1009.44
2017-08-26T01:39:43.603Z,1009.45
2017-08-26T01:40:31.689Z,1009.42
2017-08-26T01:41:25.795Z,1009.39
2017-08-26T01:42:19.816Z,1009.37
2017-08-26T01:43:08.765Z,1009.34
2017-08-26T01:44:14.891Z,1009.32
2017-08-26T01:45:09.918Z,1009.34
2017-08-26T01:46:09.983Z,1009.28
2017-08-26T01:46:58.928Z,1009.31
2017-08-26T01:47:47.061Z,1009.26
2017-08-26T01:48:35.070Z,1009.26
2017-08-26T01:49:29.061Z,1009.25
2017-08-26T01:50:29.141Z,1009.31
2017-08-26T01:51:23.163Z,1009.27
2017-08-26T01:52:17.358Z,1009.25
2017-08-26T01:53:05.316Z,1009.25
2017-08-26T01:54:00.360Z,1009.21
2017-08-26T01:54:55.431Z,1009.25
2017-08-26T01:55:49.459Z,1009.21
2017-08-26T01:56:43.505Z,1009.23
2017-08-26T01:57:38.507Z,1009.22
2017-08-26T01:58:27.549Z,1009.22
2017-08-26T01:59:16.648Z,1009.24
2017-08-26T02:00:16.571Z,1009.25
2017-08-26T02:01:11.678Z,1009.20
2017-08-26T02:02:05.831Z,1009.24
2017-08-26T02:03:00.828Z,1009.20
2017-08-26T02:03:54.789Z,1009.20
2017-08-26T02:04:48.818Z,1009.20
2017-08-26T02:05:37.883Z,1009.16
2017-08-26T02:06:31.982Z,1009.17
2017-08-26T02:07:20.997Z,1009.19
2017-08-26T02:08:14.971Z,1009.19
2017-08-26T02:09:03.989Z,1009.19
2017-08-26T02:09:53.081Z,1009.21
2017-08-26T02:10:48.111Z,1009.19
2017-08-26T02:11:37.271Z,1009.26
2017-08-26T02:12:25.253Z,1009.19
2017-08-26T02:13:19.199Z,1009.20
2017-08-26T02:14:08.281Z,1009.22
2017-08-26T02:15:02.354Z,1009.18
2017-08-26T02:15:51.411Z,1009.20
2017-08-26T02:16:45.454Z,1009.20
2017-08-26T02:17:39.496Z,1009.20
2017-08-26T02:18:39.584Z,1009.19
2017-08-26T02:19:34.538Z,1009.20
2017-08-26T02:20:29.738Z,1009.18
2017-08-26T02:21:30.626Z,1009.18
2017-08-26T02:22:30.570Z,1009.19
2017-08-26T02:23:30.687Z,1009.18
2017-08-26T02:24:25.704Z,1009.19
2017-08-26T02:25:19.743Z,1009.21
2017-08-26T02:26:19.748Z,1009.20
2017-08-26T02:27:14.842Z,1009.19
2017-08-26T02:28:09.897Z,1009.19
2017-08-26T02:28:57.889Z,1009.19
2017-08-26T02:29:46.937Z,1009.17
2017-08-26T02:30:35.002Z,1009.19
2017-08-26T02:31:23.048Z,1009.16
2017-08-26T02:32:11.058Z,1009.17
2017-08-26T02:33:00.120Z,1009.18
2017-08-26T02:33:55.312Z,1009.16
2017-08-26T02:34:50.255Z,1009.18
2017-08-26T02:35:39.268Z,1009.17
2017-08-26T02:36:27.340Z,1009.17
2017-08-26T02:37:15.508Z,1009.15
2017-08-26T02:38:04.128Z,1009.20
2017-08-26T02:38:52.065Z,1009.19
2017-08-26T02:39:41.348Z,1009.19
2017-08-26T02:40:29.466Z,1009.18
2017-08-26T02:41:23.402Z,1009.13
2017-08-26T02:42:11.771Z,1009.12
2017-08-26T02:43:00.672Z,1009.11
2017-08-26T02:43:49.742Z,1009.10
2017-08-26T02:44:44.367Z,1009.10
2017-08-26T02:45:38.802Z,1009.07
2017-08-26T02:46:27.540Z,1009.08
2017-08-26T02:47:21.415Z,1009.09
2017-08-26T02:48:09.608Z,1009.11
2017-08-26T02:48:57.705Z,1009.12
2017-08-26T02:49:45.622Z,1009.13
2017-08-26T02:50:34.689Z,1009.13
2017-08-26T02:51:22.769Z,1009.12
2017-08-26T02:52:12.148Z,1009.15
2017-08-26T02:53:00.924Z,1009.12
2017-08-26T02:53:55.958Z,1009.13
2017-08-26T02:54:51.012Z,1009.11
2017-08-26T02:55:44.884Z,1009.06
2017-08-26T02:56:39.265Z,1009.09
2017-08-26T02:57:34.260Z,1009.06
2017-08-26T02:58:28.145Z,1009.09
2017-08-26T02:59:23.103Z,1009.07
2017-08-26T03:00:17.386Z,1009.06
2017-08-26T03:01:11.161Z,1009.07
2017-08-26T03:02:06.575Z,1009.03
2017-08-26T03:02:55.630Z,1009.03
2017-08-26T03:03:44.596Z,1009.07
2017-08-26T03:04:32.607Z,1009.05
2017-08-26T03:05:21.493Z,1009.05
2017-08-26T03:06:09.520Z,1009.06
2017-08-26T03:06:57.810Z,1009.04
2017-08-26T03:07:45.881Z,1009.05
2017-08-26T03:08:34.971Z,1009.08
2017-08-26T03:09:22.910Z,1009.08
2017-08-26T03:10:10.955Z,1009.10
2017-08-26T03:11:00.130Z,1009.06
2017-08-26T03:11:48.030Z,1009.10
2017-08-26T03:12:36.106Z,1009.08
2017-08-26T03:13:25.177Z,1009.07
2017-08-26T03:14:13.250Z,1009.06
2017-08-26T03:15:01.216Z,1009.05
2017-08-26T03:15:50.393Z,1009.07
2017-08-26T03:16:38.325Z,1009.08
2017-08-26T03:17:26.407Z,1009.03
2017-08-26T03:18:15.389Z,1009.05
2017-08-26T03:19:03.492Z,1009.02
2017-08-26T03:19:51.547Z,1009.01
2017-08-26T03:20:40.644Z,1009.00
2017-08-26T03:21:28.529Z,1009.02
2017-08-26T03:22:16.823Z,1009.02
2017-08-26T03:23:05.754Z,1009.01
2017-08-26T03:23:53.775Z,1009.06
2017-08-26T03:24:41.831Z,1009.08
2017-08-26T03:25:30.875Z,1009.12
2017-08-26T03:26:18.912Z,1009.09
2017-08-26T03:27:06.915Z,1009.14
2017-08-26T03:27:56.062Z,1009.13
2017-08-26T03:28:44.051Z,1009.12
2017-08-26T03:29:32.065Z,1009.14
2017-08-26T03:30:32.144Z,1009.11
2017-08-26T03:31:20.204Z,1009.09
2017-08-26T03:32:14.224Z,1009.07
2017-08-26T03:33:03.214Z,1009.07
2017-08-26T03:34:03.270Z,1009.02
2017-08-26T03:34:57.293Z,1009.07
2017-08-26T03:35:51.417Z,1009.07
2017-08-26T03:36:45.461Z,1009.07
2017-08-26T03:37:39.527Z,1009.10
2017-08-26T03:38:28.526Z,1009.09
2017-08-26T03:39:17.393Z,1009.10
2017-08-26T03:40:05.374Z,1009.07
2017-08-26T03:41:05.586Z,1009.08
2017-08-26T03:41:54.646Z,1009.03
2017-08-26T03:42:49.795Z,1009.01
2017-08-26T03:43:37.873Z,1009.01
2017-08-26T03:44:25.830Z,1008.98
2017-08-26T03:45:14.914Z,1009.00
2017-08-26T03:46:02.948Z,1008.98
2017-08-26T03:46:52.070Z,1009.04
2017-08-26T03:47:40.056Z,1009.01
2017-08-26T03:48:28.133Z,1008.99
2017-08-26T03:49:16.171Z,1008.99
2017-08-26T03:50:05.234Z,1008.97
2017-08-26T03:50:53.219Z,1008.97
2017-08-26T03:51:41.272Z,1008.94
2017-08-26T03:52:30.348Z,1008.97
2017-08-26T03:53:18.384Z,1008.94
2017-08-26T03:54:06.389Z,1008.95
2017-08-26T03:54:55.548Z,1008.94
2017-08-26T03:55:49.513Z,1008.97
2017-08-26T03:56:37.583Z,1008.94
2017-08-26T03:57:26.577Z,1008.93
2017-08-26T03:58:15.583Z,1008.94
2017-08-26T03:59:03.636Z,1008.91
2017-08-26T03:59:51.744Z,1008.89
2017-08-26T04:00:40.893Z,1008.90
2017-08-26T04:01:28.766Z,1008.87
2017-08-26T04:02:17.934Z,1008.90
2017-08-26T04:03:05.773Z,1008.92
2017-08-26T04:03:53.899Z,1008.95
2017-08-26T04:04:41.938Z,1008.96
2017-08-26T04:05:30.022Z,1008.95
2017-08-26T04:06:24.144Z,1008.97
2017-08-26T04:07:13.153Z,1008.94
2017-08-26T04:08:01.132Z,1008.96
2017-08-26T04:08:49.234Z,1008.91
2017-08-26T04:09:38.215Z,1008.95
2017-08-26T04:10:26.418Z,1008.88
2017-08-26T04:11:21.364Z,1008.86
2017-08-26T04:12:16.409Z,1008.87
2017-08-26T04:13:10.441Z,1008.86
2017-08-26T04:14:05.455Z,1008.88
2017-08-26T04:14:59.551Z,1008.85
2017-08-26T04:15:54.480Z,1008.84
2017-08-26T04:16:48.626Z,1008.84
2017-08-26T04:17:43.553Z,1008.84
2017-08-26T04:18:37.649Z,1008.84
2017-08-26T04:19:31.711Z,1008.85
2017-08-26T04:20:26.690Z,1008.86
2017-08-26T04:21:20.747Z,1008.85
2017-08-26T04:22:15.720Z,1008.86
2017-08-26T04:23:15.891Z,1008.85
2017-08-26T04:24:10.883Z,1008.85
2017-08-26T04:25:04.846Z,1008.84
2017-08-26T04:25:59.889Z,1008.85
2017-08-26T04:26:54.043Z,1008.85
2017-08-26T04:27:48.992Z,1008.87
2017-08-26T04:28:43.083Z,1008.85
2017-08-26T04:29:37.135Z,1008.84
2017-08-26T04:30:32.198Z,1008.80
2017-08-26T04:31:26.240Z,1008.83
2017-08-26T04:32:26.237Z,1008.81
2017-08-26T04:33:21.355Z,1008.83
2017-08-26T04:34:16.284Z,1008.78
2017-08-26T04:35:16.384Z,1008.81
2017-08-26T04:36:11.343Z,1008.82
2017-08-26T04:37:06.494Z,1008.80
2017-08-26T04:38:06.410Z,1008.78
2017-08-26T04:39:01.481Z,1008.78
2017-08-26T04:39:55.585Z,1008.79
2017-08-26T04:40:50.552Z,1008.78
2017-08-26T04:41:44.628Z,1008.79
2017-08-26T04:42:38.735Z,1008.80
2017-08-26T04:43:33.698Z,1008.80
2017-08-26T04:44:27.791Z,1008.82
2017-08-26T04:45:21.792Z,1008.85
2017-08-26T04:46:16.775Z,1008.85
2017-08-26T04:47:10.801Z,1008.86
2017-08-26T04:48:10.880Z,1008.85
2017-08-26T04:49:05.966Z,1008.84
2017-08-26T04:50:01.018Z,1008.82
2017-08-26T04:50:55.012Z,1008.81
2017-08-26T04:51:50.144Z,1008.83
2017-08-26T04:52:50.168Z,1008.86
2017-08-26T04:53:45.089Z,1008.91
2017-08-26T04:54:40.232Z,1008.90
2017-08-26T04:55:34.224Z,1008.90
2017-08-26T04:56:28.246Z,1008.91
2017-08-26T04:57:23.350Z,1008.92
2017-08-26T04:58:23.432Z,1008.94
2017-08-26T04:59:18.136Z,1008.89
2017-08-26T05:00:13.479Z,1008.88
2017-08-26T05:01:13.574Z,1008.89
2017-08-26T05:02:08.434Z,1008.90
2017-08-26T05:03:02.539Z,1008.91
2017-08-26T05:03:57.661Z,1008.93
2017-08-26T05:04:51.598Z,1008.92
2017-08-26T05:05:46.717Z,1008.91
2017-08-26T05:06:40.738Z,1008.91
2017-08-26T05:07:34.742Z,1008.91
2017-08-26T05:08:29.764Z,1008.90
2017-08-26T05:09:23.824Z,1008.91
2017-08-26T05:10:17.973Z,1008.93
2017-08-26T05:11:12.918Z,1008.95
2017-08-26T05:12:13.024Z,1008.91
2017-08-26T05:13:07.984Z,1008.89
2017-08-26T05:14:02.951Z,1008.91
2017-08-26T05:14:57.083Z,1008.88
2017-08-26T05:15:51.158Z,1008.88
2017-08-26T05:16:46.137Z,1008.89
2017-08-26T05:17:40.192Z,1008.89
2017-08-26T05:18:41.899Z,1008.87
2017-08-26T05:19:34.143Z,1008.87
2017-08-26T05:20:28.321Z,1008.87
2017-08-26T05:21:22.356Z,1008.90
2017-08-26T05:22:16.321Z,1008.90
2017-08-26T05:23:11.359Z,1008.88
2017-08-26T05:24:11.462Z,1008.92
2017-08-26T05:25:06.579Z,1008.88
2017-08-26T05:26:01.509Z,1008.82
2017-08-26T05:27:01.558Z,1008.83
2017-08-26T05:27:56.607Z,1008.81
2017-08-26T05:28:51.661Z,1008.80
2017-08-26T05:29:45.620Z,1008.82
2017-08-26T05:30:39.758Z,1008.80
2017-08-26T05:31:34.850Z,1008.77
2017-08-26T05:32:28.730Z,1008.80
2017-08-26T05:33:22.854Z,1008.78
2017-08-26T05:34:17.892Z,1008.81
2017-08-26T05:35:11.897Z,1008.78
2017-08-26T05:36:06.963Z,1008.79
2017-08-26T05:37:00.960Z,1008.75
2017-08-26T05:37:55.103Z,1008.79
2017-08-26T05:38:50.077Z,1008.77
2017-08-26T05:39:50.102Z,1008.79
2017-08-26T05:40:45.192Z,1008.83
2017-08-26T05:41:39.225Z,1008.82
2017-08-26T05:42:34.215Z,1008.81
2017-08-26T05:43:28.186Z,1008.78
2017-08-26T05:44:22.271Z,1008.84
2017-08-26T05:45:17.356Z,1008.82
2017-08-26T05:46:11.384Z,1008.85
2017-08-26T05:47:05.415Z,1008.85
2017-08-26T05:48:00.394Z,1008.84
2017-08-26T05:48:54.554Z,1008.84
2017-08-26T05:49:54.620Z,1008.87
2017-08-26T05:50:43.547Z,1008.84
2017-08-26T05:51:37.794Z,1008.82
2017-08-26T05:52:37.678Z,1008.83
2017-08-26T05:53:31.642Z,1008.83
2017-08-26T05:54:31.791Z,1008.82
2017-08-26T05:55:26.792Z,1008.82
2017-08-26T05:56:20.825Z,1008.82
2017-08-26T05:57:15.875Z,1008.77
2017-08-26T05:58:04.880Z,1008.78
2017-08-26T05:58:58.980Z,1008.75
2017-08-26T06:00:04.963Z,1008.78
2017-08-26T06:01:00.084Z,1008.72
2017-08-26T06:01:49.019Z,1008.76
2017-08-26T06:02:44.155Z,1008.75
2017-08-26T06:03:39.269Z,1008.75
2017-08-26T06:04:27.285Z,1008.78
2017-08-26T06:05:16.287Z,1008.75
2017-08-26T06:06:10.284Z,1008.78
2017-08-26T06:07:04.297Z,1008.79
2017-08-26T06:07:59.506Z,1008.80
2017-08-26T06:08:54.477Z,1008.78
2017-08-26T06:09:48.453Z,1008.77
2017-08-26T06:10:48.558Z,1008.73
2017-08-26T06:11:37.718Z,1008.80
2017-08-26T06:12:26.678Z,1008.78
2017-08-26T06:13:20.726Z,1008.80
2017-08-26T06:14:20.736Z,1008.80
2017-08-26T06:15:14.809Z,1008.80
2017-08-26T06:16:09.845Z,1008.81
2017-08-26T06:17:09.852Z,1008.80
2017-08-26T06:18:03.893Z,1008.81
2017-08-26T06:18:58.878Z,1008.79
2017-08-26T06:19:54.040Z,1008.81
2017-08-26T06:20:41.989Z,1008.83
2017-08-26T06:21:37.122Z,1008.81
2017-08-26T06:22:37.079Z,1008.80
2017-08-26T06:23:26.171Z,1008.77
2017-08-26T06:24:15.423Z,1008.74
2017-08-26T06:25:03.203Z,1008.80
2017-08-26T06:25:51.292Z,1008.79
2017-08-26T06:26:46.303Z,1008.78
2017-08-26T06:27:40.392Z,1008.80
2017-08-26T06:28:29.456Z,1008.82
2017-08-26T06:29:18.530Z,1008.80
2017-08-26T06:30:07.505Z,1008.82
2017-08-26T06:30:55.621Z,1008.84
2017-08-26T06:31:55.701Z,1008.81
2017-08-26T06:32:50.656Z,1008.84
2017-08-26T06:33:45.619Z,1008.78
2017-08-26T06:34:45.789Z,1008.75
2017-08-26T06:35:45.788Z,1008.78
2017-08-26T06:36:39.870Z,1008.73
2017-08-26T06:37:40.809Z,1008.70
2017-08-26T06:38:40.874Z,1008.68
2017-08-26T06:39:40.901Z,1008.66
2017-08-26T06:40:40.988Z,1008.70
2017-08-26T06:41:41.088Z,1008.73
2017-08-26T06:42:41.046Z,1008.73
2017-08-26T06:43:41.110Z,1008.67
2017-08-26T06:44:41.126Z,1008.67
2017-08-26T06:45:36.184Z,1008.67
2017-08-26T06:46:37.325Z,1008.65
2017-08-26T06:47:31.241Z,1008.65
2017-08-26T06:48:26.297Z,1008.63
2017-08-26T06:49:21.309Z,1008.65
2017-08-26T06:50:21.423Z,1008.67
2017-08-26T06:51:16.501Z,1008.69
2017-08-26T06:52:11.440Z,1008.67
2017-08-26T06:53:05.521Z,1008.68
2017-08-26T06:54:00.622Z,1008.65
2017-08-26T06:55:00.702Z,1008.70
2017-08-26T06:55:49.659Z,1008.73
2017-08-26T06:56:37.841Z,1008.75
2017-08-26T06:57:38.064Z,1008.76
2017-08-26T06:58:37.820Z,1008.75
2017-08-26T06:59:31.861Z,1008.76
2017-08-26T07:00:25.855Z,1008.74
2017-08-26T07:01:19.912Z,1008.75
2017-08-26T07:02:08.007Z,1008.78
2017-08-26T07:03:08.011Z,1008.77
2017-08-26T07:03:56.132Z,1008.77
2017-08-26T07:04:45.161Z,1008.81
2017-08-26T07:05:40.166Z,1008.73
2017-08-26T07:06:29.292Z,1008.73
2017-08-26T07:07:29.245Z,1008.76
2017-08-26T07:08:17.376Z,1008.80
2017-08-26T07:09:11.318Z,1008.79
2017-08-26T07:10:05.447Z,1008.77
2017-08-26T07:10:59.476Z,1008.78
2017-08-26T07:11:53.547Z,1008.79
2017-08-26T07:12:42.500Z,1008.79
2017-08-26T07:13:36.695Z,1008.78
2017-08-26T07:14:31.721Z,1008.83
2017-08-26T07:15:25.724Z,1008.76
2017-08-26T07:16:26.857Z,1008.81
2017-08-26T07:17:21.873Z,1008.81
2017-08-26T07:18:15.900Z,1008.83
2017-08-26T07:19:04.991Z,1008.86
2017-08-26T07:19:59.055Z,1008.85
2017-08-26T07:20:54.087Z,1008.87
2017-08-26T07:21:42.160Z,1008.88
2017-08-26T07:22:36.177Z,1008.90
2017-08-26T07:23:30.246Z,1008.91
2017-08-26T07:24:18.318Z,1008.92
2017-08-26T07:25:07.398Z,1008.91
2017-08-26T07:26:01.320Z,1008.96
2017-08-26T07:26:49.454Z,1008.93
2017-08-26T07:27:37.525Z,1008.93
2017-08-26T07:28:32.675Z,1008.85
2017-08-26T07:29:26.643Z,1008.85
2017-08-26T07:30:20.656Z,1008.84
2017-08-26T07:31:14.732Z,1008.85
2017-08-26T07:32:02.871Z,1008.83
2017-08-26T07:32:56.892Z,1008.80
2017-08-26T07:33:50.929Z,1008.81
2017-08-26T07:34:50.972Z,1008.82
2017-08-26T07:35:44.986Z,1008.81
2017-08-26T07:36:39.086Z,1008.88
2017-08-26T07:37:28.125Z,1008.92
2017-08-26T07:38:22.248Z,1008.94
2017-08-26T07:39:22.199Z,1008.94
2017-08-26T07:40:16.361Z,1008.97
2017-08-26T07:41:10.414Z,1008.96
2017-08-26T07:42:04.361Z,1008.96
2017-08-26T07:42:52.523Z,1008.92
2017-08-26T07:43:41.480Z,1008.92
2017-08-26T07:44:35.627Z,1008.90
2017-08-26T07:45:29.524Z,1008.88
2017-08-26T07:46:18.707Z,1008.87
2017-08-26T07:47:07.682Z,1008.87
2017-08-26T07:48:01.762Z,1008.86
2017-08-26T07:48:55.824Z,1008.87
2017-08-26T07:49:50.904Z,1008.88
2017-08-26T07:50:40.016Z,1008.89
2017-08-26T07:51:33.966Z,1008.86
2017-08-26T07:52:22.120Z,1008.85
2017-08-26T07:53:22.133Z,1008.82
2017-08-26T07:54:17.157Z,1008.81
2017-08-26T07:55:06.222Z,1008.83
2017-08-26T07:56:06.293Z,1008.82
2017-08-26T07:56:55.331Z,1008.79
2017-08-26T07:57:49.319Z,1008.85
2017-08-26T07:58:43.438Z,1008.84
2017-08-26T07:59:31.455Z,1008.83
2017-08-26T08:00:25.516Z,1008.79
2017-08-26T08:01:20.559Z,1008.81
2017-08-26T08:02:09.663Z,1008.82
2017-08-26T08:02:58.704Z,1008.81
2017-08-26T08:03:52.776Z,1008.80
2017-08-26T08:04:46.850Z,1008.83
2017-08-26T08:05:40.869Z,1008.86
2017-08-26T08:06:35.921Z,1008.81
2017-08-26T08:07:30.974Z,1008.80
2017-08-26T08:08:31.151Z,1008.76
2017-08-26T08:09:26.213Z,1008.76
2017-08-26T08:10:21.187Z,1008.77
2017-08-26T08:11:16.354Z,1008.78
2017-08-26T08:12:05.462Z,1008.75
2017-08-26T08:13:05.534Z,1008.75
2017-08-26T08:13:59.526Z,1008.76
2017-08-26T08:14:53.613Z,1008.76
2017-08-26T08:15:47.667Z,1008.80
2017-08-26T08:16:41.715Z,1008.76
2017-08-26T08:17:42.840Z,1008.76
2017-08-26T08:18:30.851Z,1008.76
2017-08-26T08:19:25.919Z,1008.78
2017-08-26T08:20:15.081Z,1008.74
2017-08-26T08:21:09.150Z,1008.78
2017-08-26T08:21:58.213Z,1008.79
2017-08-26T08:22:47.262Z,1008.81
2017-08-26T08:23:41.357Z,1008.83
2017-08-26T08:24:41.347Z,1008.84
2017-08-26T08:25:35.538Z,1008.80
2017-08-26T08:26:30.491Z,1008.86
2017-08-26T08:27:24.630Z,1008.90
2017-08-26T08:28:19.752Z,1008.93
2017-08-26T08:29:13.804Z,1008.94
2017-08-26T08:30:08.801Z,1008.89
2017-08-26T08:31:02.950Z,1008.93
2017-08-26T08:31:58.086Z,1008.95
2017-08-26T08:32:47.017Z,1008.95
2017-08-26T08:33:41.259Z,1008.98
2017-08-26T08:34:35.136Z,1009.00
2017-08-26T08:35:29.131Z,1009.00
2017-08-26T08:36:29.207Z,1008.96
2017-08-26T08:37:23.251Z,1008.95
2017-08-26T08:38:12.397Z,1008.95
2017-08-26T08:39:00.408Z,1008.94
2017-08-26T08:39:49.584Z,1008.99
2017-08-26T08:40:38.640Z,1008.92
2017-08-26T08:41:26.713Z,1008.97
2017-08-26T08:42:20.930Z,1008.93
2017-08-26T08:43:08.857Z,1008.91
2017-08-26T08:44:08.939Z,1008.87
2017-08-26T08:45:08.940Z,1008.92
2017-08-26T08:46:03.055Z,1008.90
2017-08-26T08:46:57.199Z,1008.88
2017-08-26T08:47:51.208Z,1008.94
2017-08-26T08:48:51.286Z,1008.88
2017-08-26T08:49:51.610Z,1008.90
2017-08-26T08:50:45.381Z,1008.93
2017-08-26T08:51:39.667Z,1008.93
2017-08-26T08:52:27.566Z,1008.96
2017-08-26T08:53:21.680Z,1008.96
2017-08-26T08:54:21.764Z,1008.99
2017-08-26T08:55:10.835Z,1009.04
2017-08-26T08:56:04.944Z,1009.04
2017-08-26T08:56:59.010Z,1008.95
2017-08-26T08:57:48.090Z,1009.00
2017-08-26T08:58:42.079Z,1008.99
2017-08-26T08:59:36.198Z,1008.92
2017-08-26T09:00:31.272Z,1008.95
2017-08-26T09:01:19.416Z,1009.00
2017-08-26T09:02:14.448Z,1009.04
2017-08-26T09:03:09.595Z,1009.10
2017-08-26T09:04:04.543Z,1009.03
2017-08-26T09:04:59.667Z,1009.00
2017-08-26T09:05:48.968Z,1008.94
2017-08-26T09:06:48.916Z,1008.90
2017-08-26T09:07:42.839Z,1008.90
2017-08-26T09:08:43.070Z,1008.89
2017-08-26T09:09:38.200Z,1008.81
2017-08-26T09:10:32.165Z,1008.78
2017-08-26T09:11:27.304Z,1008.75
2017-08-26T09:12:16.308Z,1008.71
2017-08-26T09:13:10.406Z,1008.74
2017-08-26T09:13:58.505Z,1008.71
2017-08-26T09:14:47.572Z,1008.74
2017-08-26T09:15:41.648Z,1008.70
2017-08-26T09:16:30.739Z,1008.76
2017-08-26T09:17:18.886Z,1008.78
2017-08-26T09:18:13.920Z,1008.80
2017-08-26T09:19:07.975Z,1008.71
2017-08-26T09:19:56.092Z,1008.79
2017-08-26T09:20:50.110Z,1008.75
2017-08-26T09:21:50.360Z,1008.80
2017-08-26T09:22:45.210Z,1008.74
2017-08-26T09:23:34.277Z,1008.78
2017-08-26T09:24:29.295Z,1008.74
2017-08-26T09:25:18.520Z,1008.79
2017-08-26T09:26:18.459Z,1008.76
2017-08-26T09:27:07.595Z,1008.76
2017-08-26T09:28:01.666Z,1008.76
2017-08-26T09:29:01.705Z,1008.84
2017-08-26T09:29:55.775Z,1008.82
2017-08-26T09:30:50.816Z,1008.86
2017-08-26T09:31:45.081Z,1008.80
2017-08-26T09:32:45.002Z,1008.83
2017-08-26T09:33:39.042Z,1008.83
2017-08-26T09:34:27.101Z,1008.86
2017-08-26T09:35:15.120Z,1008.83
2017-08-26T09:36:09.221Z,1008.89
2017-08-26T09:37:03.215Z,1008.83
2017-08-26T09:37:57.375Z,1008.78
2017-08-26T09:38:51.362Z,1008.80
2017-08-26T09:39:45.377Z,1008.84
2017-08-26T09:40:34.559Z,1008.84
2017-08-26T09:41:28.545Z,1008.83
2017-08-26T09:42:17.664Z,1008.85
2017-08-26T09:43:12.673Z,1008.84
2017-08-26T09:44:06.716Z,1008.87
2017-08-26T09:45:01.789Z,1008.84
2017-08-26T09:45:56.863Z,1008.88
2017-08-26T09:46:46.011Z,1008.87
2017-08-26T09:47:40.905Z,1008.86
2017-08-26T09:48:36.003Z,1008.85
2017-08-26T09:49:25.076Z,1008.86
2017-08-26T09:50:14.187Z,1008.86
2017-08-26T09:51:14.189Z,1008.84
2017-08-26T09:52:14.336Z,1008.85
2017-08-26T09:53:08.343Z,1008.89
2017-08-26T09:54:02.492Z,1008.91
2017-08-26T09:54:56.465Z,1008.90
2017-08-26T09:55:45.634Z,1008.96
2017-08-26T09:56:34.733Z,1008.99
2017-08-26T09:57:28.763Z,1008.94
2017-08-26T09:58:22.745Z,1008.93
2017-08-26T09:59:16.885Z,1008.96
2017-08-26T10:00:17.835Z,1008.98
2017-08-26T10:01:18.958Z,1009.01
2017-08-26T10:02:07.117Z,1009.01
2017-08-26T10:02:56.163Z,1009.01
2017-08-26T10:03:50.261Z,1008.99
2017-08-26T10:04:44.217Z,1008.98
2017-08-26T10:05:39.312Z,1009.00
2017-08-26T10:06:33.437Z,1009.01
2017-08-26T10:07:22.539Z,1008.88
2017-08-26T10:08:22.511Z,1008.86
2017-08-26T10:09:11.623Z,1008.88
2017-08-26T10:10:11.790Z,1008.86
2017-08-26T10:11:06.713Z,1008.85
2017-08-26T10:12:00.824Z,1008.88
2017-08-26T10:12:54.932Z,1008.85
2017-08-26T10:13:49.020Z,1008.85
2017-08-26T10:14:43.930Z,1008.88
2017-08-26T10:15:38.078Z,1008.91
2017-08-26T10:16:38.087Z,1008.95
2017-08-26T10:17:27.253Z,1009.05
2017-08-26T10:18:21.188Z,1009.02
2017-08-26T10:19:21.257Z,1009.02
2017-08-26T10:20:15.326Z,1008.99
2017-08-26T10:21:04.492Z,1009.02
2017-08-26T10:21:59.504Z,1008.93
2017-08-26T10:22:48.479Z,1008.93
2017-08-26T10:23:36.580Z,1008.88
2017-08-26T10:24:30.636Z,1008.78
2017-08-26T10:25:25.792Z,1008.74
2017-08-26T10:26:14.890Z,1008.73
2017-08-26T10:27:08.813Z,1008.72
2017-08-26T10:28:08.926Z,1008.74
2017-08-26T10:29:02.961Z,1008.69
2017-08-26T10:29:50.964Z,1008.73
2017-08-26T10:30:40.107Z,1008.75
2017-08-26T10:31:34.114Z,1008.77
2017-08-26T10:32:23.192Z,1008.79
2017-08-26T10:33:17.273Z,1008.78
2017-08-26T10:34:11.428Z,1008.80
2017-08-26T10:35:05.371Z,1008.81
2017-08-26T10:36:00.460Z,1008.80
2017-08-26T10:36:54.507Z,1008.85
2017-08-26T10:37:43.563Z,1008.74
2017-08-26T10:38:37.602Z,1008.70
2017-08-26T10:39:26.688Z,1008.67
2017-08-26T10:40:26.835Z,1008.72
2017-08-26T10:41:20.815Z,1008.71
2017-08-26T10:42:15.987Z,1008.73